sensor_id;sensor_type;location;lat;lon;timestamp;pressure;altitude;pressure_sealevel;temperature;humidity
55671;BME280;41551;47.500;8.408;2022-08-19T00:00:09;95892.22;;;16.69;100.00
55671;BME280;41551;47.500;8.408;2022-08-19T00:02:39;95894.09;;;16.68;100.00
55671;BME280;41551;47.500;8.408;2022-08-19T00:05:06;95897.84;;;16.67;100.00
55671;BME280;41551;47.500;8.408;2022-08-19T00:07:33;95893.59;;;16.66;100.00
55671;BME280;41551;47.500;8.408;2022-08-19T00:10:00;95895.88;;;16.73;100.00
55671;BME280;41551;47.500;8.408;2022-08-19T00:12:28;95893.00;;;16.69;100.00
55671;BME280;41551;47.500;8.408;2022-08-19T00:14:55;95903.25;;;16.62;100.00
55671;BME280;41551;47.500;8.408;2022-08-19T00:17:22;95899.81;;;16.62;100.00
55671;BME280;41551;47.500;8.408;2022-08-19T00:19:48;95894.09;;;16.68;100.00
55671;BME280;41551;47.500;8.408;2022-08-19T00:22:15;95889.16;;;16.62;100.00
55671;BME280;41551;47.500;8.408;2022-08-19T00:24:43;95891.53;;;16.63;100.00
55671;BME280;41551;47.500;8.408;2022-08-19T00:27:10;95901.19;;;16.73;100.00
55671;BME280;41551;47.500;8.408;2022-08-19T00:29:38;95902.00;;;16.74;100.00
55671;BME280;41551;47.500;8.408;2022-08-19T00:32:06;95901.41;;;16.77;100.00
55671;BME280;41551;47.500;8.408;2022-08-19T00:34:33;95897.25;;;16.70;100.00
55671;BME280;41551;47.500;8.408;2022-08-19T00:37:00;95898.47;;;16.78;100.00
55671;BME280;41551;47.500;8.408;2022-08-19T00:39:27;95903.59;;;16.75;100.00
55671;BME280;41551;47.500;8.408;2022-08-19T00:41:54;95900.34;;;16.78;100.00
55671;BME280;41551;47.500;8.408;2022-08-19T00:44:23;95904.88;;;16.77;100.00
55671;BME280;41551;47.500;8.408;2022-08-19T00:46:53;95898.06;;;16.85;100.00
55671;BME280;41551;47.500;8.408;2022-08-19T00:49:24;95893.56;;;16.85;100.00
55671;BME280;41551;47.500;8.408;2022-08-19T00:51:55;95891.47;;;16.82;100.00
55671;BME280;41551;47.500;8.408;2022-08-19T00:54:25;95895.94;;;16.87;100.00
55671;BME280;41551;47.500;8.408;2022-08-19T00:56:53;95895.22;;;16.81;100.00
55671;BME280;41551;47.500;8.408;2022-08-19T00:59:20;95881.91;;;16.81;100.00
55671;BME280;41551;47.500;8.408;2022-08-19T01:01:47;95879.72;;;16.83;100.00
55671;BME280;41551;47.500;8.408;2022-08-19T01:04:16;95885.56;;;16.85;100.00
55671;BME280;41551;47.500;8.408;2022-08-19T01:06:42;95886.06;;;16.87;100.00
55671;BME280;41551;47.500;8.408;2022-08-19T01:09:09;95884.56;;;16.81;100.00
55671;BME280;41551;47.500;8.408;2022-08-19T01:11:40;95889.19;;;16.76;100.00
55671;BME280;41551;47.500;8.408;2022-08-19T01:14:09;95877.94;;;16.79;100.00
55671;BME280;41551;47.500;8.408;2022-08-19T01:16:37;95876.88;;;16.80;100.00
55671;BME280;41551;47.500;8.408;2022-08-19T01:19:10;95880.91;;;16.77;100.00
55671;BME280;41551;47.500;8.408;2022-08-19T01:21:43;95881.13;;;16.81;100.00
55671;BME280;41551;47.500;8.408;2022-08-19T01:24:15;95878.44;;;16.81;100.00
55671;BME280;41551;47.500;8.408;2022-08-19T01:26:43;95867.38;;;16.74;100.00
55671;BME280;41551;47.500;8.408;2022-08-19T01:29:10;95865.44;;;16.79;100.00
55671;BME280;41551;47.500;8.408;2022-08-19T01:31:37;95866.22;;;16.80;100.00
55671;BME280;41551;47.500;8.408;2022-08-19T01:34:06;95867.69;;;16.86;100.00
55671;BME280;41551;47.500;8.408;2022-08-19T01:36:38;95875.28;;;16.79;100.00
55671;BME280;41551;47.500;8.408;2022-08-19T01:39:11;95876.16;;;16.74;100.00
55671;BME280;41551;47.500;8.408;2022-08-19T01:41:39;95869.34;;;16.82;100.00
55671;BME280;41551;47.500;8.408;2022-08-19T01:44:08;95873.13;;;16.81;100.00
55671;BME280;41551;47.500;8.408;2022-08-19T01:46:36;95882.69;;;16.82;100.00
55671;BME280;41551;47.500;8.408;2022-08-19T01:49:04;95881.13;;;16.81;100.00
55671;BME280;41551;47.500;8.408;2022-08-19T01:51:31;95879.81;;;16.78;100.00
55671;BME280;41551;47.500;8.408;2022-08-19T01:53:58;95870.94;;;16.83;100.00
55671;BME280;41551;47.500;8.408;2022-08-19T01:56:25;95872.75;;;16.87;100.00
55671;BME280;41551;47.500;8.408;2022-08-19T01:58:55;95868.28;;;16.83;100.00
55671;BME280;41551;47.500;8.408;2022-08-19T02:01:24;95865.63;;;16.83;100.00
55671;BME280;41551;47.500;8.408;2022-08-19T02:03:51;95863.09;;;16.92;100.00
55671;BME280;41551;47.500;8.408;2022-08-19T02:06:19;95858.66;;;16.87;100.00
55671;BME280;41551;47.500;8.408;2022-08-19T02:08:46;95851.53;;;16.82;100.00
55671;BME280;41551;47.500;8.408;2022-08-19T02:11:21;95850.34;;;16.75;100.00
55671;BME280;41551;47.500;8.408;2022-08-19T02:13:48;95861.53;;;16.72;100.00
55671;BME280;41551;47.500;8.408;2022-08-19T02:16:17;95865.91;;;16.67;100.00
55671;BME280;41551;47.500;8.408;2022-08-19T02:18:44;95863.13;;;16.73;100.00
55671;BME280;41551;47.500;8.408;2022-08-19T02:21:12;95859.41;;;16.74;100.00
55671;BME280;41551;47.500;8.408;2022-08-19T02:23:39;95861.00;;;16.75;100.00
55671;BME280;41551;47.500;8.408;2022-08-19T02:26:06;95861.19;;;16.78;100.00
55671;BME280;41551;47.500;8.408;2022-08-19T02:28:33;95860.88;;;16.80;100.00
55671;BME280;41551;47.500;8.408;2022-08-19T02:30:59;95854.97;;;16.83;100.00
55671;BME280;41551;47.500;8.408;2022-08-19T02:33:29;95852.13;;;16.79;100.00
55671;BME280;41551;47.500;8.408;2022-08-19T02:35:56;95856.34;;;16.80;100.00
55671;BME280;41551;47.500;8.408;2022-08-19T02:38:22;95864.31;;;16.80;100.00
55671;BME280;41551;47.500;8.408;2022-08-19T02:40:52;95875.88;;;16.76;100.00
55671;BME280;41551;47.500;8.408;2022-08-19T02:43:20;95876.16;;;16.74;100.00
55671;BME280;41551;47.500;8.408;2022-08-19T02:45:48;95878.53;;;16.76;100.00
55671;BME280;41551;47.500;8.408;2022-08-19T02:48:17;95888.47;;;16.70;100.00
55671;BME280;41551;47.500;8.408;2022-08-19T02:50:47;95882.56;;;16.73;100.00
55671;BME280;41551;47.500;8.408;2022-08-19T02:53:16;95877.94;;;16.79;100.00
55671;BME280;41551;47.500;8.408;2022-08-19T02:55:43;95871.72;;;16.83;100.00
55671;BME280;41551;47.500;8.408;2022-08-19T02:58:11;95875.19;;;16.84;100.00
55671;BME280;41551;47.500;8.408;2022-08-19T03:00:42;95870.66;;;16.84;100.00
55671;BME280;41551;47.500;8.408;2022-08-19T03:03:09;95869.06;;;16.83;100.00
55671;BME280;41551;47.500;8.408;2022-08-19T03:05:36;95875.19;;;16.84;100.00
55671;BME280;41551;47.500;8.408;2022-08-19T03:08:04;95874.56;;;16.73;100.00
55671;BME280;41551;47.500;8.408;2022-08-19T03:10:31;95874.31;;;16.75;100.00
55671;BME280;41551;47.500;8.408;2022-08-19T03:12:57;95877.81;;;16.70;100.00
55671;BME280;41551;47.500;8.408;2022-08-19T03:15:24;95880.78;;;16.68;100.00
55671;BME280;41551;47.500;8.408;2022-08-19T03:17:51;95881.88;;;16.67;100.00
55671;BME280;41551;47.500;8.408;2022-08-19T03:20:18;95884.25;;;16.69;100.00
55671;BME280;41551;47.500;8.408;2022-08-19T03:22:45;95887.09;;;16.73;100.00
55671;BME280;41551;47.500;8.408;2022-08-19T03:25:13;95883.72;;;16.67;100.00
55671;BME280;41551;47.500;8.408;2022-08-19T03:27:39;95887.63;;;16.75;100.00
55671;BME280;41551;47.500;8.408;2022-08-19T03:30:07;95885.31;;;16.68;100.00
55671;BME280;41551;47.500;8.408;2022-08-19T03:32:34;95880.47;;;16.70;100.00
55671;BME280;41551;47.500;8.408;2022-08-19T03:35:00;95881.78;;;16.73;100.00
55671;BME280;41551;47.500;8.408;2022-08-19T03:37:27;95881.88;;;16.67;100.00
55671;BME280;41551;47.500;8.408;2022-08-19T03:39:54;95890.34;;;16.69;100.00
55671;BME280;41551;47.500;8.408;2022-08-19T03:42:22;95884.44;;;16.73;100.00
55671;BME280;41551;47.500;8.408;2022-08-19T03:44:50;95887.63;;;16.75;100.00
55671;BME280;41551;47.500;8.408;2022-08-19T03:47:17;95880.91;;;16.77;100.00
55671;BME280;41551;47.500;8.408;2022-08-19T03:49:44;95887.97;;;16.68;100.00
55671;BME280;41551;47.500;8.408;2022-08-19T03:52:11;95881.34;;;16.65;100.00
55671;BME280;41551;47.500;8.408;2022-08-19T03:54:38;95883.44;;;16.68;100.00
55671;BME280;41551;47.500;8.408;2022-08-19T03:57:05;95870.63;;;16.70;100.00
55671;BME280;41551;47.500;8.408;2022-08-19T03:59:36;95872.78;;;16.68;100.00
55671;BME280;41551;47.500;8.408;2022-08-19T04:02:10;95885.81;;;16.70;100.00
55671;BME280;41551;47.500;8.408;2022-08-19T04:04:38;95881.28;;;16.70;100.00
55671;BME280;41551;47.500;8.408;2022-08-19T04:07:05;95877.63;;;16.66;100.00
55671;BME280;41551;47.500;8.408;2022-08-19T04:09:33;95878.69;;;16.65;100.00
55671;BME280;41551;47.500;8.408;2022-08-19T04:12:00;95873.88;;;16.67;100.00
55671;BME280;41551;47.500;8.408;2022-08-19T04:14:28;95869.81;;;16.70;100.00
55671;BME280;41551;47.500;8.408;2022-08-19T04:16:57;95853.47;;;16.63;100.00
55671;BME280;41551;47.500;8.408;2022-08-19T04:19:25;95869.44;;;16.63;100.00
55671;BME280;41551;47.500;8.408;2022-08-19T04:21:53;95867.06;;;16.61;100.00
55671;BME280;41551;47.500;8.408;2022-08-19T04:24:21;95867.06;;;16.61;100.00
55671;BME280;41551;47.500;8.408;2022-08-19T04:26:49;95866.97;;;16.66;100.00
55671;BME280;41551;47.500;8.408;2022-08-19T04:29:18;95875.84;;;16.62;100.00
55671;BME280;41551;47.500;8.408;2022-08-19T04:31:46;95884.56;;;16.48;100.00
55671;BME280;41551;47.500;8.408;2022-08-19T04:34:16;95891.28;;;16.46;100.00
55671;BME280;41551;47.500;8.408;2022-08-19T04:36:44;95899.56;;;16.44;100.00
55671;BME280;41551;47.500;8.408;2022-08-19T04:39:13;95898.19;;;16.47;100.00
55671;BME280;41551;47.500;8.408;2022-08-19T04:41:40;95909.25;;;16.54;100.00
55671;BME280;41551;47.500;8.408;2022-08-19T04:44:25;95909.91;;;16.46;100.00
55671;BME280;41551;47.500;8.408;2022-08-19T04:46:56;95915.31;;;16.41;100.00
55671;BME280;41551;47.500;8.408;2022-08-19T04:49:24;95911.56;;;16.42;100.00
55671;BME280;41551;47.500;8.408;2022-08-19T04:51:52;95914.09;;;16.52;100.00
55671;BME280;41551;47.500;8.408;2022-08-19T04:54:21;95906.88;;;16.52;100.00
55671;BME280;41551;47.500;8.408;2022-08-19T04:56:48;95907.66;;;16.53;100.00
55671;BME280;41551;47.500;8.408;2022-08-19T04:59:17;95910.03;;;16.55;100.00
55671;BME280;41551;47.500;8.408;2022-08-19T05:01:46;95908.47;;;16.54;100.00
55671;BME280;41551;47.500;8.408;2022-08-19T05:04:16;95912.63;;;16.60;100.00
55671;BME280;41551;47.500;8.408;2022-08-19T05:06:46;95910.84;;;16.55;100.00
55671;BME280;41551;47.500;8.408;2022-08-19T05:09:13;95919.13;;;16.54;100.00
55671;BME280;41551;47.500;8.408;2022-08-19T05:11:40;95932.53;;;16.62;100.00
55671;BME280;41551;47.500;8.408;2022-08-19T05:14:08;95937.38;;;16.60;100.00
55671;BME280;41551;47.500;8.408;2022-08-19T05:16:35;95937.56;;;16.64;100.00
55671;BME280;41551;47.500;8.408;2022-08-19T05:19:02;95929.81;;;16.67;100.00
55671;BME280;41551;47.500;8.408;2022-08-19T05:21:48;95926.97;;;16.78;100.00
55671;BME280;41551;47.500;8.408;2022-08-19T05:24:32;95927.28;;;16.76;100.00
55671;BME280;41551;47.500;8.408;2022-08-19T05:26:59;95935.81;;;16.73;100.00
55671;BME280;41551;47.500;8.408;2022-08-19T05:29:28;95938.69;;;16.77;100.00
55671;BME280;41551;47.500;8.408;2022-08-19T05:31:57;95944.63;;;16.74;100.00
55671;BME280;41551;47.500;8.408;2022-08-19T05:34:25;95948.56;;;16.76;100.00
55671;BME280;41551;47.500;8.408;2022-08-19T05:36:55;95947.19;;;16.79;100.00
55671;BME280;41551;47.500;8.408;2022-08-19T05:39:24;95958.34;;;16.81;100.00
55671;BME280;41551;47.500;8.408;2022-08-19T05:41:53;95952.44;;;16.84;100.00
55671;BME280;41551;47.500;8.408;2022-08-19T05:44:22;95960.38;;;16.89;100.00
55671;BME280;41551;47.500;8.408;2022-08-19T05:46:49;95960.06;;;16.91;100.00
55671;BME280;41551;47.500;8.408;2022-08-19T05:49:18;95957.41;;;16.91;100.00
55671;BME280;41551;47.500;8.408;2022-08-19T05:51:46;95956.97;;;16.83;100.00
55671;BME280;41551;47.500;8.408;2022-08-19T05:54:14;95954.75;;;16.91;100.00
55671;BME280;41551;47.500;8.408;2022-08-19T05:56:42;95964.63;;;16.90;100.00
55671;BME280;41551;47.500;8.408;2022-08-19T05:59:10;95965.19;;;16.87;100.00
55671;BME280;41551;47.500;8.408;2022-08-19T06:01:38;95968.84;;;16.91;100.00
55671;BME280;41551;47.500;8.408;2022-08-19T06:04:05;95965.22;;;17.01;100.00
55671;BME280;41551;47.500;8.408;2022-08-19T06:06:33;95968.97;;;17.00;100.00
55671;BME280;41551;47.500;8.408;2022-08-19T06:09:00;95960.50;;;16.98;100.00
55671;BME280;41551;47.500;8.408;2022-08-19T06:11:35;95962.44;;;16.92;100.00
55671;BME280;41551;47.500;8.408;2022-08-19T06:14:03;95950.63;;;16.98;100.00
55671;BME280;41551;47.500;8.408;2022-08-19T06:16:30;95949.03;;;16.97;100.00
55671;BME280;41551;47.500;8.408;2022-08-19T06:19:02;95961.16;;;17.03;100.00
55671;BME280;41551;47.500;8.408;2022-08-19T06:21:31;95958.59;;;16.98;100.00
55671;BME280;41551;47.500;8.408;2022-08-19T06:23:59;95967.50;;;17.08;100.00
55671;BME280;41551;47.500;8.408;2022-08-19T06:26:26;95958.03;;;17.01;100.00
55671;BME280;41551;47.500;8.408;2022-08-19T06:28:54;95955.28;;;17.07;100.00
55671;BME280;41551;47.500;8.408;2022-08-19T06:31:22;95961.28;;;17.12;100.00
55671;BME280;41551;47.500;8.408;2022-08-19T06:33:49;95958.34;;;17.14;100.00
55671;BME280;41551;47.500;8.408;2022-08-19T06:36:18;95961.22;;;17.17;100.00
55671;BME280;41551;47.500;8.408;2022-08-19T06:38:45;95960.63;;;17.20;100.00
55671;BME280;41551;47.500;8.408;2022-08-19T06:41:12;95958.56;;;17.31;100.00
55671;BME280;41551;47.500;8.408;2022-08-19T06:43:39;95957.09;;;17.25;100.00
55671;BME280;41551;47.500;8.408;2022-08-19T06:46:11;95958.75;;;17.35;100.00
55671;BME280;41551;47.500;8.408;2022-08-19T06:48:39;95962.31;;;17.30;100.00
55671;BME280;41551;47.500;8.408;2022-08-19T06:51:06;95951.06;;;17.33;100.00
55671;BME280;41551;47.500;8.408;2022-08-19T06:53:33;95964.88;;;17.35;100.00
55671;BME280;41551;47.500;8.408;2022-08-19T06:56:00;95959.47;;;17.40;100.00
55671;BME280;41551;47.500;8.408;2022-08-19T06:58:28;95967.34;;;17.46;100.00
55671;BME280;41551;47.500;8.408;2022-08-19T07:00:58;95966.09;;;17.43;100.00
55671;BME280;41551;47.500;8.408;2022-08-19T07:03:28;95967.66;;;17.44;100.00
55671;BME280;41551;47.500;8.408;2022-08-19T07:05:56;95966.63;;;17.26;100.00
55671;BME280;41551;47.500;8.408;2022-08-19T07:08:24;95961.91;;;17.23;100.00
55671;BME280;41551;47.500;8.408;2022-08-19T07:10:52;95971.19;;;17.26;100.00
55671;BME280;41551;47.500;8.408;2022-08-19T07:13:20;95972.56;;;17.23;100.00
55671;BME280;41551;47.500;8.408;2022-08-19T07:15:47;95965.66;;;17.22;100.00
55671;BME280;41551;47.500;8.408;2022-08-19T07:18:16;95968.53;;;17.26;100.00
55671;BME280;41551;47.500;8.408;2022-08-19T07:20:44;95969.81;;;17.28;100.00
55671;BME280;41551;47.500;8.408;2022-08-19T07:23:11;95972.78;;;17.27;100.00
55671;BME280;41551;47.500;8.408;2022-08-19T07:25:38;95977.50;;;17.16;100.00
55671;BME280;41551;47.500;8.408;2022-08-19T07:28:05;95980.06;;;17.21;100.00
55671;BME280;41551;47.500;8.408;2022-08-19T07:30:36;95978.69;;;17.10;100.00
55671;BME280;41551;47.500;8.408;2022-08-19T07:33:03;95991.50;;;17.21;100.00
55671;BME280;41551;47.500;8.408;2022-08-19T07:35:30;95990.91;;;17.11;100.00
55671;BME280;41551;47.500;8.408;2022-08-19T07:38:01;95991.00;;;17.05;100.00
55671;BME280;41551;47.500;8.408;2022-08-19T07:40:30;95988.53;;;17.09;100.00
55671;BME280;41551;47.500;8.408;2022-08-19T07:42:56;95997.53;;;17.13;100.00
55671;BME280;41551;47.500;8.408;2022-08-19T07:45:23;95988.41;;;17.00;100.00
55671;BME280;41551;47.500;8.408;2022-08-19T07:47:50;95990.09;;;16.96;100.00
55671;BME280;41551;47.500;8.408;2022-08-19T07:50:20;95990.00;;;17.01;100.00
55671;BME280;41551;47.500;8.408;2022-08-19T07:52:47;95999.44;;;16.94;100.00
55671;BME280;41551;47.500;8.408;2022-08-19T07:55:21;95999.16;;;16.95;100.00
55671;BME280;41551;47.500;8.408;2022-08-19T07:57:48;95997.28;;;16.96;100.00
55671;BME280;41551;47.500;8.408;2022-08-19T08:00:17;95993.81;;;16.95;100.00
55671;BME280;41551;47.500;8.408;2022-08-19T08:02:44;96003.41;;;16.96;100.00
55671;BME280;41551;47.500;8.408;2022-08-19T08:05:10;96004.00;;;16.93;100.00
55671;BME280;41551;47.500;8.408;2022-08-19T08:07:55;96008.22;;;16.94;100.00
55671;BME280;41551;47.500;8.408;2022-08-19T08:10:41;96013.47;;;16.99;100.00
55671;BME280;41551;47.500;8.408;2022-08-19T08:13:08;96019.09;;;16.98;100.00
55671;BME280;41551;47.500;8.408;2022-08-19T08:15:35;96023.13;;;16.95;100.00
55671;BME280;41551;47.500;8.408;2022-08-19T08:18:03;96026.28;;;16.97;100.00
55671;BME280;41551;47.500;8.408;2022-08-19T08:20:31;96026.09;;;16.94;100.00
55671;BME280;41551;47.500;8.408;2022-08-19T08:22:58;96029.47;;;16.99;100.00
55671;BME280;41551;47.500;8.408;2022-08-19T08:25:44;96030.44;;;17.03;100.00
55671;BME280;41551;47.500;8.408;2022-08-19T08:28:10;96037.47;;;16.99;100.00
55671;BME280;41551;47.500;8.408;2022-08-19T08:30:37;96043.22;;;17.07;100.00
55671;BME280;41551;47.500;8.408;2022-08-19T08:33:06;96041.69;;;17.00;100.00
55671;BME280;41551;47.500;8.408;2022-08-19T08:35:33;96042.09;;;17.08;100.00
55671;BME280;41551;47.500;8.408;2022-08-19T08:38:00;96054.84;;;17.11;100.00
55671;BME280;41551;47.500;8.408;2022-08-19T08:40:33;96056.88;;;17.19;100.00
55671;BME280;41551;47.500;8.408;2022-08-19T08:43:08;96054.84;;;17.11;100.00
55671;BME280;41551;47.500;8.408;2022-08-19T08:48:23;96064.22;;;17.08;100.00
55671;BME280;41551;47.500;8.408;2022-08-19T08:50:52;96063.34;;;17.13;100.00
55671;BME280;41551;47.500;8.408;2022-08-19T08:53:21;96073.22;;;17.12;100.00
55671;BME280;41551;47.500;8.408;2022-08-19T08:55:48;96072.84;;;17.19;100.00
55671;BME280;41551;47.500;8.408;2022-08-19T08:58:21;96079.75;;;17.20;100.00
55671;BME280;41551;47.500;8.408;2022-08-19T09:00:50;96083.22;;;17.20;100.00
55671;BME280;41551;47.500;8.408;2022-08-19T09:03:18;96086.66;;;17.21;100.00
55671;BME280;41551;47.500;8.408;2022-08-19T09:05:53;96085.31;;;17.23;100.00
55671;BME280;41551;47.500;8.408;2022-08-19T09:08:29;96089.25;;;17.26;100.00
55671;BME280;41551;47.500;8.408;2022-08-19T09:11:00;96085.69;;;17.31;100.00
55671;BME280;41551;47.500;8.408;2022-08-19T09:13:36;96091.84;;;17.31;100.00
55671;BME280;41551;47.500;8.408;2022-08-19T09:16:11;96097.47;;;17.30;100.00
55671;BME280;41551;47.500;8.408;2022-08-19T09:18:41;96092.81;;;17.35;100.00
55671;BME280;41551;47.500;8.408;2022-08-19T09:21:08;96100.75;;;17.40;100.00
55671;BME280;41551;47.500;8.408;2022-08-19T09:23:35;96095.00;;;17.33;100.00
55671;BME280;41551;47.500;8.408;2022-08-19T09:26:07;96097.75;;;17.28;100.00
55671;BME280;41551;47.500;8.408;2022-08-19T09:28:36;96090.53;;;17.29;100.00
55671;BME280;41551;47.500;8.408;2022-08-19T09:31:03;96101.28;;;17.23;100.00
55671;BME280;41551;47.500;8.408;2022-08-19T09:33:30;96098.97;;;17.36;100.00
55671;BME280;41551;47.500;8.408;2022-08-19T09:36:05;96101.09;;;17.34;100.00
55671;BME280;41551;47.500;8.408;2022-08-19T09:38:33;96097.47;;;17.30;100.00
55671;BME280;41551;47.500;8.408;2022-08-19T09:41:03;96115.44;;;17.38;100.00
55671;BME280;41551;47.500;8.408;2022-08-19T09:43:31;96106.56;;;17.43;100.00
55671;BME280;41551;47.500;8.408;2022-08-19T09:46:00;96114.56;;;17.43;100.00
55671;BME280;41551;47.500;8.408;2022-08-19T09:48:27;96106.97;;;17.36;100.00
55671;BME280;41551;47.500;8.408;2022-08-19T09:50:55;96108.91;;;17.30;100.00
55671;BME280;41551;47.500;8.408;2022-08-19T09:53:21;96121.66;;;17.33;100.00
55671;BME280;41551;47.500;8.408;2022-08-19T09:55:48;96121.34;;;17.35;100.00
55671;BME280;41551;47.500;8.408;2022-08-19T09:58:15;96131.72;;;17.36;100.00
55671;BME280;41551;47.500;8.408;2022-08-19T10:00:42;96129.66;;;17.33;100.00
55671;BME280;41551;47.500;8.408;2022-08-19T10:03:10;96141.53;;;17.41;100.00
55671;BME280;41551;47.500;8.408;2022-08-19T10:05:37;96136.06;;;17.32;100.00
55671;BME280;41551;47.500;8.408;2022-08-19T10:08:18;96143.75;;;17.34;100.00
55671;BME280;41551;47.500;8.408;2022-08-19T10:10:46;96135.47;;;17.35;100.00
55671;BME280;41551;47.500;8.408;2022-08-19T10:13:17;96139.09;;;17.45;100.00
55671;BME280;41551;47.500;8.408;2022-08-19T10:15:45;96142.91;;;17.38;100.00
55671;BME280;41551;47.500;8.408;2022-08-19T10:18:13;96139.25;;;17.34;100.00
55671;BME280;41551;47.500;8.408;2022-08-19T10:20:41;96143.75;;;17.34;100.00
55671;BME280;41551;47.500;8.408;2022-08-19T10:23:08;96139.25;;;17.34;100.00
55671;BME280;41551;47.500;8.408;2022-08-19T10:25:35;96140.91;;;17.30;100.00
55671;BME280;41551;47.500;8.408;2022-08-19T10:28:03;96133.09;;;17.34;100.00
55671;BME280;41551;47.500;8.408;2022-08-19T10:30:31;96137.06;;;17.36;100.00
55671;BME280;41551;47.500;8.408;2022-08-19T10:32:58;96129.97;;;17.46;100.00
55671;BME280;41551;47.500;8.408;2022-08-19T10:35:26;96139.28;;;17.48;100.00
55671;BME280;41551;47.500;8.408;2022-08-19T10:37:53;96138.88;;;17.55;100.00
55671;BME280;41551;47.500;8.408;2022-08-19T10:40:25;96139.47;;;17.52;100.00
55671;BME280;41551;47.500;8.408;2022-08-19T10:42:52;96144.81;;;17.52;100.00
55671;BME280;41551;47.500;8.408;2022-08-19T10:45:18;96143.84;;;17.48;100.00
55671;BME280;41551;47.500;8.408;2022-08-19T10:47:47;96142.34;;;17.42;100.00
55671;BME280;41551;47.500;8.408;2022-08-19T10:50:14;96139.09;;;17.45;100.00
55671;BME280;41551;47.500;8.408;2022-08-19T10:53:07;96135.31;;;17.46;100.00
55671;BME280;41551;47.500;8.408;2022-08-19T10:55:34;96133.53;;;17.41;100.00
55671;BME280;41551;47.500;8.408;2022-08-19T10:58:20;96135.91;;;17.43;100.00
55671;BME280;41551;47.500;8.408;2022-08-19T11:00:52;96130.56;;;17.43;100.00
55671;BME280;41551;47.500;8.408;2022-08-19T11:03:20;96136.91;;;17.47;100.00
55671;BME280;41551;47.500;8.408;2022-08-19T11:05:46;96135.75;;;17.53;100.00
55671;BME280;41551;47.500;8.408;2022-08-19T11:08:16;96134.56;;;17.59;100.00
55671;BME280;41551;47.500;8.408;2022-08-19T11:10:43;96133.97;;;17.62;100.00
55671;BME280;41551;47.500;8.408;2022-08-19T11:13:09;96146.53;;;17.62;100.00
55671;BME280;41551;47.500;8.408;2022-08-19T11:15:36;96145.22;;;17.59;100.00
55671;BME280;41551;47.500;8.408;2022-08-19T11:18:03;96154.31;;;17.58;100.00
55671;BME280;41551;47.500;8.408;2022-08-19T11:20:30;96147.41;;;17.57;100.00
55671;BME280;41551;47.500;8.408;2022-08-19T11:22:57;96152.75;;;17.57;100.00
55671;BME280;41551;47.500;8.408;2022-08-19T11:25:25;96148.63;;;17.65;100.00
55671;BME280;41551;47.500;8.408;2022-08-19T11:27:52;96151.94;;;17.56;100.00
55671;BME280;41551;47.500;8.408;2022-08-19T11:30:19;96165.34;;;17.51;100.00
55671;BME280;41551;47.500;8.408;2022-08-19T11:32:46;96150.44;;;17.50;100.00
55671;BME280;41551;47.500;8.408;2022-08-19T11:35:13;96163.47;;;17.52;100.00
55671;BME280;41551;47.500;8.408;2022-08-19T11:37:39;96168.13;;;17.46;100.00
55671;BME280;41551;47.500;8.408;2022-08-19T11:40:07;96165.16;;;17.48;100.00
55671;BME280;41551;47.500;8.408;2022-08-19T11:42:36;96164.00;;;17.54;100.00
55671;BME280;41551;47.500;8.408;2022-08-19T11:45:21;96175.25;;;17.51;100.00
55671;BME280;41551;47.500;8.408;2022-08-19T11:47:48;96170.69;;;17.51;100.00
55671;BME280;41551;47.500;8.408;2022-08-19T11:50:15;96176.22;;;17.55;100.00
55671;BME280;41551;47.500;8.408;2022-08-19T11:52:42;96167.56;;;17.63;100.00
55671;BME280;41551;47.500;8.408;2022-08-19T11:55:10;96173.56;;;17.55;100.00
55671;BME280;41551;47.500;8.408;2022-08-19T11:57:39;96177.03;;;17.55;100.00
55671;BME280;41551;47.500;8.408;2022-08-19T12:00:07;96170.88;;;17.55;100.00
55671;BME280;41551;47.500;8.408;2022-08-19T12:02:35;96180.78;;;17.54;100.00
55671;BME280;41551;47.500;8.408;2022-08-19T12:05:02;96176.81;;;17.52;100.00
55671;BME280;41551;47.500;8.408;2022-08-19T12:07:28;96174.06;;;17.57;100.00
55671;BME280;41551;47.500;8.408;2022-08-19T12:09:58;96167.78;;;17.67;100.00
55671;BME280;41551;47.500;8.408;2022-08-19T12:12:25;96166.41;;;17.69;100.00
55671;BME280;41551;47.500;8.408;2022-08-19T12:14:53;96167.41;;;17.73;100.00
55671;BME280;41551;47.500;8.408;2022-08-19T12:17:23;96168.38;;;17.77;100.00
55671;BME280;41551;47.500;8.408;2022-08-19T12:19:52;96168.38;;;17.77;100.00
55671;BME280;41551;47.500;8.408;2022-08-19T12:22:19;96170.88;;;17.88;100.00
55671;BME280;41551;47.500;8.408;2022-08-19T12:24:46;96160.97;;;17.93;100.00
55671;BME280;41551;47.500;8.408;2022-08-19T12:27:15;96158.78;;;17.96;100.00
55671;BME280;41551;47.500;8.408;2022-08-19T12:29:42;96159.00;;;17.99;100.00
55671;BME280;41551;47.500;8.408;2022-08-19T12:32:10;96164.72;;;18.06;100.00
55671;BME280;41551;47.500;8.408;2022-08-19T12:34:36;96162.75;;;18.12;100.00
55671;BME280;41551;47.500;8.408;2022-08-19T12:37:05;96160.28;;;18.16;100.00
55671;BME280;41551;47.500;8.408;2022-08-19T12:39:34;96159.38;;;18.06;100.00
55671;BME280;41551;47.500;8.408;2022-08-19T12:42:01;96160.38;;;18.10;100.00
55671;BME280;41551;47.500;8.408;2022-08-19T12:44:28;96165.13;;;18.14;100.00
55671;BME280;41551;47.500;8.408;2022-08-19T12:46:56;96155.22;;;18.14;100.00
55671;BME280;41551;47.500;8.408;2022-08-19T12:49:24;96157.59;;;18.16;100.00
55671;BME280;41551;47.500;8.408;2022-08-19T12:51:51;96165.03;;;18.19;100.00
55671;BME280;41551;47.500;8.408;2022-08-19T12:54:18;96160.00;;;18.31;100.00
55671;BME280;41551;47.500;8.408;2022-08-19T12:56:45;96158.59;;;18.34;100.00
55671;BME280;41551;47.500;8.408;2022-08-19T12:59:12;96159.59;;;18.38;100.00